Time;durP1;ratioP1;P1;durP2;ratioP2;P2;SDS_P1;SDS_P2;PMS_P1;PMS_P2;Temp;Humidity;BMP_temperature;BMP_pressure;BME280_temperature;BME280_humidity;BME280_pressure;Samples;Min_cycle;Max_cycle;Signal;HPM_P1;HPM_P2
2022/05/22 00:02:09;;;;;;;3.20;1.67;;;;;;;10.54;81.61;97589.53;4986718;28;20104;-65
2022/05/22 00:04:37;;;;;;;2.72;1.17;;;;;;;10.59;81.15;97586.09;4995808;28;20088;-65
2022/05/22 00:07:05;;;;;;;6.00;1.70;;;;;;;10.61;80.72;97585.84;5002363;28;20042;-65
2022/05/22 00:09:34;;;;;;;4.07;1.63;;;;;;;10.46;81.06;97581.81;4989618;28;20190;-65
2022/05/22 00:12:02;;;;;;;4.22;1.50;;;;;;;10.56;81.13;97592.00;5000736;28;20038;-66
2022/05/22 00:14:28;;;;;;;4.10;1.52;;;;;;;10.55;80.64;97584.94;4987018;28;20046;-64
2022/05/22 00:16:55;;;;;;;3.97;2.00;;;;;;;10.56;80.47;97574.91;5004944;28;20544;-66
2022/05/22 00:19:24;;;;;;;5.72;1.70;;;;;;;10.43;81.13;97578.75;5005623;28;20042;-65
2022/05/22 00:21:52;;;;;;;3.13;1.55;;;;;;;10.36;81.17;97570.78;4990673;28;20041;-66
2022/05/22 00:24:24;;;;;;;3.75;1.60;;;;;;;10.31;81.76;97566.09;5003458;28;20041;-65
2022/05/22 00:26:51;;;;;;;2.97;1.55;;;;;;;10.24;82.04;97570.84;5002900;28;20696;-65
2022/05/22 00:29:19;;;;;;;3.72;1.55;;;;;;;10.25;81.98;97573.31;5005064;28;20042;-65
2022/05/22 00:31:46;;;;;;;3.55;1.80;;;;;;;10.30;81.57;97569.88;5003394;28;20065;-65
2022/05/22 00:34:14;;;;;;;5.20;1.75;;;;;;;10.27;81.57;97564.94;4993281;28;20042;-65
2022/05/22 00:36:40;;;;;;;2.72;1.52;;;;;;;10.22;81.67;97556.75;5003812;28;20068;-65
2022/05/22 00:39:07;;;;;;;2.90;1.58;;;;;;;10.22;81.54;97567.59;5002207;28;20056;-65
2022/05/22 00:41:34;;;;;;;5.57;2.00;;;;;;;10.20;81.65;97567.00;5000849;28;20685;-65
2022/05/22 00:44:03;;;;;;;5.15;1.63;;;;;;;10.08;82.09;97558.94;5004349;28;20054;-65
2022/05/22 00:46:30;;;;;;;3.35;1.40;;;;;;;10.02;82.04;97552.63;4987866;28;20054;-65
2022/05/22 00:49:13;;;;;;;4.53;1.80;;;;;;;10.02;82.19;97558.03;4986338;28;20042;-65
2022/05/22 00:51:46;;;;;;;4.40;1.52;;;;;;;10.03;82.35;97554.28;5002992;28;20092;-65
2022/05/22 00:54:19;;;;;;;3.67;1.55;;;;;;;10.03;82.37;97559.69;5018481;28;20053;-65
2022/05/22 00:56:52;;;;;;;4.30;1.83;;;;;;;10.04;82.12;97552.38;5003644;28;20038;-65
2022/05/22 00:59:28;;;;;;;3.20;1.60;;;;;;;10.04;82.22;97549.69;5006177;28;20037;-65
2022/05/22 01:01:58;;;;;;;3.65;1.75;;;;;;;10.12;81.72;97554.69;4986732;28;20031;-65
2022/05/22 01:04:30;;;;;;;3.40;1.63;;;;;;;10.09;82.10;97547.06;4991792;28;20061;-65
2022/05/22 01:07:00;;;;;;;3.20;1.80;;;;;;;10.01;82.07;97543.72;4996837;28;20053;-65
2022/05/22 01:09:27;;;;;;;3.72;1.65;;;;;;;9.88;82.77;97527.78;4991451;28;20426;-65
2022/05/22 01:12:04;;;;;;;6.18;1.60;;;;;;;9.86;82.66;97527.19;5002756;28;20382;-65
2022/05/22 01:14:33;;;;;;;4.53;1.88;;;;;;;9.78;83.00;97531.13;5005812;28;20058;-65
2022/05/22 01:17:05;;;;;;;5.57;2.03;;;;;;;9.56;84.04;97522.88;5003070;28;20449;-65
2022/05/22 01:19:34;;;;;;;6.07;2.33;;;;;;;9.61;83.49;97526.50;4985181;28;20084;-66
2022/05/22 01:22:04;;;;;;;5.43;2.00;;;;;;;9.57;83.27;97535.31;4990020;28;20461;-65
2022/05/22 01:24:31;;;;;;;4.60;1.90;;;;;;;9.42;83.24;97544.78;5000661;28;20533;-65
2022/05/22 01:27:02;;;;;;;2.65;1.40;;;;;;;9.24;84.12;97546.59;4989456;28;20493;-65
2022/05/22 01:29:43;;;;;;;4.43;1.85;;;;;;;9.15;84.46;97537.25;4991104;28;20129;-65
2022/05/22 01:32:11;;;;;;;3.25;1.77;;;;;;;9.03;85.12;97541.84;4990708;28;20511;-65
2022/05/22 01:34:40;;;;;;;2.83;2.00;;;;;;;8.98;85.48;97539.84;5005365;28;20042;-65
2022/05/22 01:37:06;;;;;;;3.88;1.85;;;;;;;9.11;85.57;97542.28;4991381;28;20689;-65
2022/05/22 01:39:34;;;;;;;5.32;2.35;;;;;;;9.16;85.64;97541.56;4998681;28;20057;-65
2022/05/22 01:42:01;;;;;;;3.95;1.90;;;;;;;9.25;85.53;97539.31;5001978;28;20053;-65
2022/05/22 01:44:28;;;;;;;5.18;2.13;;;;;;;9.32;85.09;97526.47;4988108;28;20453;-65
2022/05/22 01:46:55;;;;;;;5.72;2.28;;;;;;;9.32;84.79;97528.38;4996760;28;20056;-65
2022/05/22 01:49:25;;;;;;;5.40;2.40;;;;;;;9.34;84.92;97540.59;4995409;28;20042;-65
2022/05/22 01:51:51;;;;;;;3.97;1.85;;;;;;;9.42;84.49;97527.75;4990343;28;20101;-65
2022/05/22 01:54:18;;;;;;;3.03;1.50;;;;;;;9.43;84.41;97540.22;4996088;28;20050;-65
2022/05/22 01:56:44;;;;;;;3.22;1.90;;;;;;;9.30;85.00;97546.69;5000726;28;20073;-65
2022/05/22 01:59:13;;;;;;;5.10;1.83;;;;;;;9.22;84.91;97540.59;4986955;28;20054;-65
2022/05/22 02:01:50;;;;;;;6.72;2.28;;;;;;;9.20;85.12;97531.09;5000883;28;20053;-65
2022/05/22 02:04:17;;;;;;;4.55;1.75;;;;;;;9.18;85.47;97536.75;4987589;28;20150;-65
2022/05/22 02:09:31;;;;;;;3.20;1.50;;;;;;;9.45;84.13;97527.25;4991464;28;20249;-65
2022/05/22 02:11:57;;;;;;;4.10;1.95;;;;;;;9.39;84.15;97529.03;5004528;28;20046;-65
2022/05/22 02:14:24;;;;;;;7.13;2.15;;;;;;;9.32;84.67;97529.19;4999976;28;20041;-65
2022/05/22 02:17:04;;;;;;;4.88;1.80;;;;;;;9.27;85.14;97514.75;5004929;28;20046;-65
2022/05/22 02:19:41;;;;;;;2.50;1.75;;;;;;;9.22;85.28;97515.47;4997977;28;20579;-65
2022/05/22 02:22:08;;;;;;;4.10;2.15;;;;;;;9.21;85.18;97501.16;5005373;28;20054;-65
2022/05/22 02:24:35;;;;;;;3.42;1.92;;;;;;;9.14;85.33;97492.34;5006335;28;20046;-65
2022/05/22 02:27:10;;;;;;;4.43;2.03;;;;;;;9.19;85.05;97497.88;5003423;28;20045;-65
2022/05/22 02:29:37;;;;;;;6.25;2.03;;;;;;;9.14;85.45;97505.06;5000921;28;20047;-65
2022/05/22 02:32:05;;;;;;;5.70;2.38;;;;;;;9.16;85.43;97503.75;5005914;28;20050;-65
2022/05/22 02:34:33;;;;;;;4.18;1.80;;;;;;;9.09;85.85;97503.88;5004958;28;20057;-65
2022/05/22 02:37:02;;;;;;;8.00;1.90;;;;;;;9.06;85.79;97503.53;4997062;28;20054;-65
2022/05/22 02:39:30;;;;;;;5.32;2.00;;;;;;;9.08;85.62;97493.31;4997072;28;20612;-65
2022/05/22 02:42:04;;;;;;;4.03;1.83;;;;;;;9.10;85.67;97492.03;5000217;28;20073;-65
2022/05/22 02:44:31;;;;;;;4.75;2.00;;;;;;;9.11;85.51;97484.75;5001028;28;20033;-65
2022/05/22 02:46:57;;;;;;;3.20;2.15;;;;;;;9.21;84.88;97486.81;4998134;28;20133;-65
2022/05/22 02:49:24;;;;;;;3.85;2.05;;;;;;;9.33;84.20;97481.38;4988628;28;20100;-65
2022/05/22 02:51:51;;;;;;;3.10;1.85;;;;;;;9.21;84.81;97487.63;5000433;28;20045;-65
2022/05/22 02:54:17;;;;;;;4.05;1.90;;;;;;;9.21;84.53;97482.22;5009289;28;20046;-65
2022/05/22 02:56:55;;;;;;;6.53;1.77;;;;;;;9.23;84.36;97482.00;5026465;28;20103;-65
2022/05/22 02:59:36;;;;;;;5.03;2.20;;;;;;;9.21;84.32;97476.84;5014353;28;20042;-65
2022/05/22 03:02:28;;;;;;;4.38;1.90;;;;;;;9.24;84.13;97470.94;5003525;28;20104;-65
2022/05/22 03:04:54;;;;;;;3.33;2.00;;;;;;;9.06;85.17;97471.94;4993641;28;20038;-65
2022/05/22 03:07:21;;;;;;;3.28;1.80;;;;;;;8.96;85.55;97467.16;4986786;28;20061;-65
2022/05/22 03:09:49;;;;;;;4.07;1.90;;;;;;;8.91;85.63;97466.22;5003358;28;20077;-65
2022/05/22 03:12:21;;;;;;;4.85;1.90;;;;;;;8.81;85.88;97459.56;5001172;28;20062;-65
2022/05/22 03:14:56;;;;;;;5.35;2.22;;;;;;;8.80;86.15;97457.94;5000401;28;20225;-65
2022/05/22 03:17:25;;;;;;;4.75;1.90;;;;;;;8.76;86.34;97455.94;5000472;28;20619;-65
2022/05/22 03:19:59;;;;;;;4.70;2.10;;;;;;;8.81;86.40;97464.16;4996069;28;20138;-65
2022/05/22 03:22:25;;;;;;;5.03;1.95;;;;;;;8.83;86.14;97452.06;5021634;28;20042;-65
2022/05/22 03:24:52;;;;;;;4.30;2.00;;;;;;;8.83;86.26;97462.03;4997057;28;20054;-65
2022/05/22 03:27:20;;;;;;;3.80;1.92;;;;;;;8.68;86.72;97463.34;4994966;28;20053;-65
2022/05/22 03:29:50;;;;;;;5.65;2.38;;;;;;;8.68;86.75;97459.81;5003864;28;20088;-65
2022/05/22 03:32:17;;;;;;;5.55;1.88;;;;;;;8.62;86.90;97456.19;5000729;28;20046;-65
2022/05/22 03:34:45;;;;;;;3.58;1.70;;;;;;;8.49;86.72;97453.72;5016074;28;20148;-65
2022/05/22 03:37:14;;;;;;;6.60;2.17;;;;;;;8.49;87.17;97454.56;5016639;28;20049;-65
2022/05/22 03:39:41;;;;;;;4.72;2.22;;;;;;;8.59;86.56;97454.00;5007463;28;20148;-65
2022/05/22 03:42:07;;;;;;;3.65;1.88;;;;;;;8.53;86.70;97461.16;5007498;28;20053;-65
2022/05/22 03:44:36;;;;;;;8.73;2.10;;;;;;;8.55;86.75;97447.41;5010908;28;20053;-65
2022/05/22 03:47:03;;;;;;;4.38;2.22;;;;;;;8.55;86.72;97453.63;5005628;28;20054;-65
2022/05/22 03:49:42;;;;;;;4.45;2.17;;;;;;;8.53;87.00;97452.22;5005801;28;20164;-65
2022/05/22 03:52:09;;;;;;;4.50;1.80;;;;;;;8.62;86.78;97458.09;5007978;28;20441;-65
2022/05/22 03:54:35;;;;;;;4.57;2.00;;;;;;;8.60;86.82;97450.22;5002137;28;20045;-65
2022/05/22 03:57:02;;;;;;;4.15;2.00;;;;;;;8.65;86.43;97441.41;4997258;28;20058;-65
2022/05/22 03:59:32;;;;;;;3.92;2.10;;;;;;;8.63;86.40;97447.06;4990029;28;20795;-65
2022/05/22 04:02:01;;;;;;;4.20;2.20;;;;;;;8.65;86.69;97433.28;4985389;28;20081;-65
2022/05/22 04:04:28;;;;;;;5.90;2.05;;;;;;;8.61;86.87;97435.66;4995286;28;20041;-64
2022/05/22 04:06:57;;;;;;;3.78;2.00;;;;;;;8.67;86.78;97436.59;5005304;28;20038;-65
2022/05/22 04:09:28;;;;;;;7.90;2.80;;;;;;;8.70;86.47;97431.53;5004219;28;20050;-65
2022/05/22 04:12:06;;;;;;;5.45;2.35;;;;;;;8.74;86.46;97428.38;5002400;28;20042;-65
2022/05/22 04:14:35;;;;;;;4.32;2.10;;;;;;;8.74;85.94;97428.38;5003816;28;20512;-65
2022/05/22 04:17:05;;;;;;;4.28;2.30;;;;;;;8.73;86.12;97429.44;5000497;28;20034;-65
2022/05/22 04:19:33;;;;;;;4.10;1.95;;;;;;;8.75;86.20;97430.00;4998013;28;20065;-65
2022/05/22 04:22:01;;;;;;;4.82;2.05;;;;;;;8.77;85.84;97428.69;5002410;28;20042;-65
2022/05/22 04:27:15;;;;;;;6.38;2.30;;;;;;;8.87;86.25;97419.16;4994666;28;20135;-46
2022/05/22 04:29:42;;;;;;;7.05;2.30;;;;;;;8.91;85.88;97425.72;5012786;28;20041;-45
2022/05/22 04:32:09;;;;;;;4.50;2.30;;;;;;;9.01;85.78;97406.19;5010657;28;20535;-46
2022/05/22 04:34:42;;;;;;;3.47;2.05;;;;;;;9.06;85.48;97415.22;5014461;28;20447;-44
2022/05/22 04:37:11;;;;;;;5.05;2.08;;;;;;;9.10;85.24;97419.09;5015063;28;20069;-45
2022/05/22 04:39:42;;;;;;;5.40;2.25;;;;;;;9.19;85.41;97419.53;5007299;28;20132;-45
2022/05/22 04:42:11;;;;;;;3.83;2.05;;;;;;;9.26;85.25;97418.56;5008430;28;20058;-46
2022/05/22 04:44:38;;;;;;;6.38;2.13;;;;;;;9.28;85.45;97417.25;5012081;28;20048;-47
2022/05/22 04:47:22;;;;;;;5.20;2.03;;;;;;;9.32;84.98;97420.31;5016796;28;20127;-46
2022/05/22 04:50:09;;;;;;;4.40;1.92;;;;;;;9.34;84.87;97413.59;5010108;28;20708;-45
2022/05/22 04:52:56;;;;;;;3.15;1.98;;;;;;;9.35;84.87;97414.38;5011448;28;20085;-46
2022/05/22 04:55:23;;;;;;;4.38;2.17;;;;;;;9.46;84.68;97413.50;5001333;28;20050;-46
2022/05/22 04:57:49;;;;;;;4.13;1.60;;;;;;;9.54;84.41;97406.06;5008721;28;20069;-43
2022/05/22 05:00:16;;;;;;;5.57;1.80;;;;;;;9.63;83.96;97407.31;5006410;28;20049;-45
2022/05/22 05:02:54;;;;;;;4.68;1.80;;;;;;;9.78;83.67;97411.31;5017993;28;20054;-44
2022/05/22 05:05:21;;;;;;;6.80;2.28;;;;;;;9.91;83.52;97410.97;5006581;28;20037;-42
2022/05/22 05:07:48;;;;;;;5.57;1.88;;;;;;;10.09;83.04;97401.78;5020420;28;20211;-46
2022/05/22 05:10:33;;;;;;;4.07;1.85;;;;;;;10.20;82.63;97404.63;4997505;28;20197;-43
2022/05/22 05:13:17;;;;;;;5.35;2.28;;;;;;;10.28;82.63;97396.94;5001276;28;20050;-43
2022/05/22 05:15:45;;;;;;;5.13;1.98;;;;;;;10.39;82.59;97402.47;4997008;28;20049;-44
2022/05/22 05:18:18;;;;;;;4.70;2.08;;;;;;;10.58;82.22;97391.38;4999472;28;20041;-45
2022/05/22 05:20:47;;;;;;;4.15;1.77;;;;;;;10.66;81.78;97386.34;4997320;28;20053;-50
2022/05/22 05:23:15;;;;;;;4.38;2.03;;;;;;;10.79;81.66;97393.28;5005001;28;20153;-45
2022/05/22 05:25:46;;;;;;;4.50;2.35;;;;;;;10.91;81.40;97397.75;5012623;28;20042;-47
2022/05/22 05:28:12;;;;;;;5.68;1.75;;;;;;;11.02;81.32;97391.34;5003894;28;20042;-48
2022/05/22 05:30:39;;;;;;;5.65;2.22;;;;;;;11.19;80.84;97396.69;5001035;28;20038;-48
2022/05/22 05:33:07;;;;;;;4.90;1.92;;;;;;;11.42;80.54;97396.63;5006934;28;20104;-49
2022/05/22 05:35:52;;;;;;;4.35;2.00;;;;;;;11.66;79.72;97390.88;5001830;28;20056;-45
2022/05/22 05:38:43;;;;;;;4.70;1.80;;;;;;;11.91;79.28;97386.72;5005577;28;20034;-45
2022/05/22 05:41:48;;;;;;;2.63;1.50;;;;;;;12.17;77.90;97378.78;4992461;28;20157;-46
2022/05/22 05:44:18;;;;;;;5.00;2.00;;;;;;;12.46;76.25;97387.34;4987626;28;20780;-44
2022/05/22 05:46:48;;;;;;;3.65;1.50;;;;;;;12.70;76.02;97388.81;5005560;28;20042;-47
2022/05/22 05:49:15;;;;;;;2.50;1.30;;;;;;;12.89;75.37;97391.88;5000725;28;20046;-44
2022/05/22 05:51:44;;;;;;;4.43;1.75;;;;;;;13.05;75.13;97400.88;4996763;28;20220;-48
2022/05/22 05:54:15;;;;;;;3.90;1.40;;;;;;;13.28;73.60;97393.34;5018623;28;20114;-44
2022/05/22 05:57:01;;;;;;;4.53;1.40;;;;;;;13.48;73.72;97392.59;5009728;28;20974;-45
2022/05/22 05:59:36;;;;;;;3.85;1.45;;;;;;;13.70;71.86;97388.78;5007113;28;20050;-44
2022/05/22 06:02:15;;;;;;;3.58;1.17;;;;;;;13.96;70.29;97379.81;5010700;28;20061;-47
2022/05/22 06:04:42;;;;;;;2.78;1.55;;;;;;;14.10;69.04;97389.03;5020450;28;20747;-45
2022/05/22 06:07:10;;;;;;;2.90;1.60;;;;;;;14.23;69.00;97378.66;5011815;28;20140;-45
2022/05/22 06:09:37;;;;;;;2.35;1.40;;;;;;;14.42;68.59;97378.91;5006070;28;20738;-46
2022/05/22 06:12:18;;;;;;;3.33;1.40;;;;;;;14.56;68.76;97373.69;5016007;28;20191;-45
2022/05/22 06:14:55;;;;;;;4.35;1.30;;;;;;;14.85;66.45;97373.03;5006928;28;20042;-47
2022/05/22 06:17:36;;;;;;;5.45;1.40;;;;;;;15.16;66.09;97363.88;5000793;28;20048;-45
2022/05/22 06:20:07;;;;;;;2.55;1.45;;;;;;;15.13;64.61;97361.69;5008227;28;20042;-67
2022/05/22 06:22:39;;;;;;;2.20;1.20;;;;;;;15.06;65.45;97360.13;5021153;28;20103;-67
2022/05/22 06:25:18;;;;;;;4.57;1.20;;;;;;;15.03;64.96;97370.75;5001440;28;20137;-67
2022/05/22 06:27:50;;;;;;;1.92;1.08;;;;;;;15.04;65.12;97364.22;5006487;28;20113;-67
2022/05/22 06:30:46;;;;;;;3.05;1.25;;;;;;;15.10;65.36;97379.44;4997228;28;20467;-68
2022/05/22 06:33:32;;;;;;;3.95;1.40;;;;;;;15.24;65.43;97374.19;4994304;28;21514;-67
2022/05/22 06:36:34;;;;;;;6.30;2.35;;;;;;;15.40;65.48;97379.56;4951604;28;20039;-67
2022/05/22 06:39:50;;;;;;;4.35;1.10;;;;;;;15.56;64.41;97375.59;4986528;28;20050;-67
2022/05/22 06:42:44;;;;;;;2.85;1.50;;;;;;;15.71;64.64;97380.09;5018389;28;20192;-67
2022/05/22 06:45:30;;;;;;;3.53;1.40;;;;;;;15.86;63.84;97379.16;5008193;28;20064;-67
2022/05/22 06:48:03;;;;;;;2.13;1.17;;;;;;;15.99;63.32;97372.25;5001051;28;20116;-67
2022/05/22 06:50:48;;;;;;;4.65;1.30;;;;;;;16.16;59.66;97383.84;5008866;28;20056;-67
2022/05/22 06:53:21;;;;;;;3.13;1.30;;;;;;;16.19;59.98;97384.09;5020876;28;20103;-67
2022/05/22 06:55:54;;;;;;;2.38;1.05;;;;;;;16.31;58.93;97382.88;4998435;28;20920;-67
2022/05/22 06:58:33;;;;;;;5.32;1.23;;;;;;;16.40;59.33;97389.34;5015483;28;20111;-66
2022/05/22 07:01:19;;;;;;;2.67;1.25;;;;;;;16.57;59.07;97377.13;4985157;28;20600;-67
2022/05/22 07:04:04;;;;;;;2.90;1.40;;;;;;;16.69;57.39;97384.94;5010337;28;20564;-66
2022/05/22 07:06:50;;;;;;;4.57;1.40;;;;;;;16.83;57.85;97388.59;5010329;28;20154;-68
2022/05/22 07:09:25;;;;;;;3.45;1.75;;;;;;;16.86;58.38;97388.00;5007900;28;20061;-65
2022/05/22 07:11:59;;;;;;;4.47;2.25;;;;;;;16.84;56.35;97381.19;5001300;28;20119;-65
2022/05/22 07:14:38;;;;;;;1.90;1.05;;;;;;;16.92;56.79;97374.25;5001819;28;20533;-65
2022/05/22 07:17:12;;;;;;;7.78;1.35;;;;;;;17.03;55.77;97379.28;5004018;28;20050;-65
2022/05/22 07:19:45;;;;;;;2.75;1.40;;;;;;;17.09;56.34;97384.72;4995051;28;20046;-65
2022/05/22 07:22:30;;;;;;;4.03;1.10;;;;;;;17.27;55.85;97374.91;5012610;28;20140;-66
2022/05/22 07:25:17;;;;;;;5.22;1.20;;;;;;;17.36;53.86;97366.84;4983791;28;20587;-65
2022/05/22 07:27:56;;;;;;;4.80;1.52;;;;;;;17.35;55.25;97363.28;5009719;28;20125;-66
2022/05/22 07:30:34;;;;;;;1.90;0.98;;;;;;;17.49;54.34;97368.00;5001961;28;20136;-65
2022/05/22 07:33:21;;;;;;;2.90;1.10;;;;;;;17.58;53.20;97355.25;4990142;28;20075;-66
2022/05/22 07:36:22;;;;;;;3.05;1.55;;;;;;;17.74;52.67;97357.75;4989038;28;20054;-66
2022/05/22 07:39:08;;;;;;;1.80;0.80;;;;;;;17.77;50.87;97357.16;5001236;28;20061;-65
2022/05/22 07:41:58;;;;;;;2.65;0.98;;;;;;;17.79;50.35;97357.66;5012274;28;20425;-66
2022/05/22 07:44:49;;;;;;;2.33;0.95;;;;;;;17.86;49.60;97357.28;5005515;28;20049;-66
2022/05/22 07:47:35;;;;;;;2.63;0.90;;;;;;;17.85;50.35;97344.72;5012234;28;20136;-66
2022/05/22 07:50:17;;;;;;;2.78;1.13;;;;;;;17.92;51.20;97345.94;4997181;28;20519;-66
2022/05/22 07:52:59;;;;;;;3.00;1.00;;;;;;;18.00;48.97;97344.44;4992941;28;20054;-66
2022/05/22 07:55:39;;;;;;;2.00;0.70;;;;;;;17.97;47.78;97342.31;5001614;28;20046;-63
2022/05/22 07:58:27;;;;;;;3.00;0.70;;;;;;;17.99;47.75;97337.31;5002304;28;20050;-68
2022/05/22 08:00:57;;;;;;;2.40;0.93;;;;;;;18.02;48.13;97336.72;5001032;28;20053;-68
2022/05/22 08:03:47;;;;;;;3.83;0.77;;;;;;;18.07;48.51;97342.09;4996106;28;20080;-68
2022/05/22 08:06:45;;;;;;;3.55;1.00;;;;;;;18.16;48.90;97338.69;5013315;28;20041;-68
2022/05/22 08:09:25;;;;;;;5.35;1.00;;;;;;;18.22;48.84;97329.28;5006128;28;20064;-69
2022/05/22 08:11:54;;;;;;;3.38;1.10;;;;;;;18.31;49.21;97327.44;4999505;28;20121;-68
2022/05/22 08:14:20;;;;;;;5.63;1.08;;;;;;;18.33;48.29;97325.22;5013184;28;20277;-68
2022/05/22 08:16:47;;;;;;;1.58;0.75;;;;;;;18.32;49.85;97318.09;5024187;28;20091;-69
2022/05/22 08:19:16;;;;;;;3.08;1.45;;;;;;;18.58;54.20;97325.81;4989916;28;20053;-68
2022/05/22 08:22:19;;;;;;;3.20;1.42;;;;;;;18.74;54.06;97327.41;5007229;28;20104;-68
2022/05/22 08:25:27;;;;;;;3.17;1.48;;;;;;;18.81;54.07;97319.59;4965529;28;20098;-65
2022/05/22 08:27:55;;;;;;;5.05;1.38;;;;;;;18.89;54.08;97309.81;4972979;28;20041;-68
2022/05/22 08:30:24;;;;;;;3.15;1.20;;;;;;;18.88;53.09;97314.50;4983910;28;20041;-68
2022/05/22 08:32:52;;;;;;;3.90;1.45;;;;;;;18.66;53.96;97316.06;4992670;28;20042;-69
2022/05/22 08:35:26;;;;;;;2.13;1.13;;;;;;;18.84;54.92;97313.50;5000424;28;20053;-68
2022/05/22 08:37:53;;;;;;;2.60;1.55;;;;;;;18.65;53.78;97316.38;5020815;28;20044;-69
2022/05/22 08:40:23;;;;;;;2.53;1.08;;;;;;;18.70;54.36;97308.03;5001379;28;20445;-68
2022/05/22 08:43:10;;;;;;;3.72;1.30;;;;;;;19.02;53.59;97303.47;4986165;28;20437;-68
2022/05/22 08:45:52;;;;;;;5.07;2.15;;;;;;;18.91;54.27;97300.16;4990563;28;20639;-68
2022/05/22 08:48:34;;;;;;;7.00;1.70;;;;;;;19.09;53.24;97290.19;4999004;28;20050;-68
2022/05/22 08:51:02;;;;;;;3.58;1.40;;;;;;;19.24;53.30;97289.00;5008635;28;20099;-65
2022/05/22 08:53:43;;;;;;;2.80;1.40;;;;;;;19.20;53.13;97293.50;5010641;28;20120;-71
2022/05/22 08:59:09;;;;;;;3.85;1.23;;;;;;;19.12;52.97;97294.25;5011440;28;20038;-66
2022/05/22 09:01:59;;;;;;;2.60;1.40;;;;;;;19.33;51.66;97286.34;5018242;28;20072;-66
2022/05/22 09:04:31;;;;;;;4.22;1.40;;;;;;;19.39;51.75;97289.78;4997190;28;20050;-66
2022/05/22 09:07:07;;;;;;;3.42;1.15;;;;;;;19.32;51.96;97283.91;5015151;28;20041;-66
2022/05/22 09:09:36;;;;;;;3.47;1.13;;;;;;;19.43;52.64;97281.72;5009654;28;20045;-66
2022/05/22 09:12:29;;;;;;;3.22;1.38;;;;;;;19.47;51.63;97277.22;5017845;28;20049;-65
2022/05/22 09:14:56;;;;;;;3.88;1.23;;;;;;;19.54;52.11;97285.84;5012237;28;20050;-66
2022/05/22 09:17:30;;;;;;;1.80;1.30;;;;;;;19.85;51.52;97275.97;4999630;28;20066;-66
2022/05/22 09:20:09;;;;;;;3.13;1.30;;;;;;;20.00;50.89;97274.78;4998332;28;20046;-67
2022/05/22 09:23:00;;;;;;;5.32;1.50;;;;;;;19.89;51.20;97275.03;5005339;28;20127;-66
2022/05/22 09:25:34;;;;;;;3.42;1.30;;;;;;;19.78;51.55;97278.38;4987356;28;20494;-65
2022/05/22 09:28:03;;;;;;;3.00;1.40;;;;;;;19.40;53.07;97279.59;5014595;28;20087;-65
2022/05/22 09:30:45;;;;;;;2.55;1.33;;;;;;;19.33;53.28;97267.13;5004015;28;20053;-66
2022/05/22 09:33:24;;;;;;;16.95;2.53;;;;;;;19.56;52.46;97272.59;5005291;28;20053;-65
2022/05/22 09:36:05;;;;;;;7.35;1.83;;;;;;;19.52;52.71;97274.34;5008379;28;20088;-65
2022/05/22 09:38:46;;;;;;;4.60;1.00;;;;;;;19.73;51.44;97271.09;5002178;28;20034;-64
2022/05/22 09:41:36;;;;;;;2.03;1.25;;;;;;;19.61;52.16;97264.22;5007056;28;20048;-65
2022/05/22 09:44:32;;;;;;;2.95;1.60;;;;;;;19.94;51.39;97262.31;4994628;28;20077;-65
2022/05/22 09:47:58;;;;;;;2.97;1.52;;;;;;;20.31;49.18;97257.44;5013443;28;20128;-66
2022/05/22 09:51:00;;;;;;;2.45;1.35;;;;;;;20.55;48.56;97261.72;4986249;28;20100;-65
2022/05/22 09:53:46;;;;;;;4.75;1.52;;;;;;;20.51;49.08;97263.47;5015480;28;20528;-65
2022/05/22 09:56:51;;;;;;;2.53;1.40;;;;;;;20.65;48.47;97246.84;5000291;28;20070;-65
2022/05/22 09:59:45;;;;;;;1.95;1.20;;;;;;;20.82;48.70;97257.03;4989715;28;21478;-65
2022/05/22 10:02:20;;;;;;;3.83;1.20;;;;;;;20.79;48.28;97252.19;5001620;28;20504;-65
2022/05/22 10:05:19;;;;;;;3.30;1.20;;;;;;;20.87;47.12;97247.81;5003591;28;20096;-65
2022/05/22 10:08:03;;;;;;;3.67;1.30;;;;;;;20.84;48.42;97252.03;5008796;28;20045;-66
2022/05/22 10:10:37;;;;;;;4.82;2.45;;;;;;;20.76;49.24;97237.16;5001600;28;20073;-65
2022/05/22 10:13:29;;;;;;;2.80;1.20;;;;;;;20.70;49.74;97237.59;5001757;28;20053;-65
2022/05/22 10:16:25;;;;;;;2.33;1.10;;;;;;;20.96;48.94;97234.91;5000953;28;20056;-65
2022/05/22 10:19:14;;;;;;;3.60;1.60;;;;;;;20.76;49.44;97245.41;5017048;28;20542;-69
2022/05/22 10:21:53;;;;;;;2.25;1.20;;;;;;;20.83;48.37;97252.34;5011926;28;20041;-66
2022/05/22 10:24:46;;;;;;;3.13;1.20;;;;;;;20.74;48.55;97239.41;4994690;28;20190;-66
2022/05/22 10:27:26;;;;;;;4.10;1.48;;;;;;;20.70;48.07;97241.19;5004778;28;20595;-66
2022/05/22 10:29:58;;;;;;;2.97;1.40;;;;;;;20.66;49.03;97229.19;4996990;28;20096;-66
2022/05/22 10:32:31;;;;;;;2.65;1.30;;;;;;;20.71;48.15;97226.28;5012769;28;20049;-66
2022/05/22 10:35:02;;;;;;;2.03;1.08;;;;;;;20.67;48.15;97219.81;5000511;28;20042;-66
2022/05/22 10:37:51;;;;;;;5.05;1.58;;;;;;;20.69;47.98;97220.31;5017124;28;20057;-66
2022/05/22 10:40:21;;;;;;;3.75;1.55;;;;;;;20.70;48.42;97218.34;5006113;28;20170;-66
2022/05/22 10:42:54;;;;;;;4.80;1.52;;;;;;;20.85;48.46;97217.06;5006224;28;20144;-66
2022/05/22 10:45:36;;;;;;;6.18;1.40;;;;;;;21.00;48.12;97200.09;5026077;28;20048;-66
2022/05/22 10:48:23;;;;;;;2.13;1.30;;;;;;;21.26;46.97;97199.25;5013717;28;20045;-66
2022/05/22 10:51:27;;;;;;;2.58;1.30;;;;;;;21.25;46.40;97194.88;5002943;28;20540;-66
2022/05/22 10:53:59;;;;;;;2.88;1.50;;;;;;;21.20;47.15;97188.75;4991642;28;20053;-66
2022/05/22 10:56:29;;;;;;;2.55;1.10;;;;;;;21.08;46.75;97192.97;5005597;28;20045;-66
2022/05/22 10:59:01;;;;;;;3.10;1.00;;;;;;;21.25;45.70;97188.56;5004669;28;20034;-66
2022/05/22 11:01:37;;;;;;;2.88;1.05;;;;;;;21.37;45.90;97177.69;5018718;28;20046;-66
2022/05/22 11:04:12;;;;;;;3.13;1.08;;;;;;;21.45;45.43;97181.56;5018720;28;20057;-66
2022/05/22 11:06:53;;;;;;;5.35;1.25;;;;;;;21.53;45.29;97179.91;5005697;28;20077;-66
2022/05/22 11:09:25;;;;;;;4.28;1.10;;;;;;;21.81;44.03;97187.75;5003687;28;20051;-66
2022/05/22 11:12:11;;;;;;;3.25;1.10;;;;;;;21.94;44.26;97184.00;5016150;28;20757;-66
2022/05/22 11:14:39;;;;;;;3.95;1.20;;;;;;;22.07;43.88;97179.38;5019738;28;20060;-66
2022/05/22 11:17:14;;;;;;;2.78;1.02;;;;;;;21.95;43.57;97166.31;5014549;28;20673;-66
2022/05/22 11:19:44;;;;;;;2.95;1.20;;;;;;;21.96;43.46;97162.41;4998291;28;20125;-66
2022/05/22 11:22:27;;;;;;;2.63;1.08;;;;;;;22.18;43.15;97163.25;5011763;28;20520;-66
2022/05/22 11:25:18;;;;;;;4.22;1.70;;;;;;;22.49;43.55;97161.28;5014604;28;20058;-64
2022/05/22 11:28:04;;;;;;;2.10;1.08;;;;;;;22.33;42.77;97161.88;5020378;28;20119;-64
2022/05/22 11:30:52;;;;;;;4.38;2.20;;;;;;;22.47;42.62;97156.09;4999308;28;20042;-65
2022/05/22 11:33:48;;;;;;;1.63;1.00;;;;;;;22.56;42.31;97166.28;5015572;28;20053;-64
2022/05/22 11:36:36;;;;;;;3.00;1.30;;;;;;;22.94;41.87;97157.03;5005937;28;20096;-67
2022/05/22 11:39:31;;;;;;;3.40;1.10;;;;;;;23.15;41.20;97164.47;5008604;28;20046;-67
2022/05/22 11:42:11;;;;;;;3.45;1.10;;;;;;;22.95;41.10;97150.34;4998685;28;20049;-65
2022/05/22 11:44:53;;;;;;;2.78;1.10;;;;;;;23.34;40.27;97152.94;5007320;28;20052;-65
2022/05/22 11:48:15;;;;;;;1.85;0.93;;;;;;;23.08;40.96;97139.34;5007932;28;20048;-64
2022/05/22 11:50:52;;;;;;;3.60;1.10;;;;;;;22.84;39.99;97138.94;4928716;28;20051;-65
2022/05/22 11:53:43;;;;;;;2.75;1.17;;;;;;;23.14;39.30;97132.47;4998865;28;20065;-64
2022/05/22 11:56:21;;;;;;;4.93;1.05;;;;;;;23.15;38.68;97130.50;4997363;28;20057;-64
2022/05/22 11:59:10;;;;;;;2.33;1.10;;;;;;;22.76;38.72;97130.72;5012937;28;20041;-64
2022/05/22 12:01:50;;;;;;;1.88;0.82;;;;;;;23.02;38.84;97127.72;4998368;28;20054;-64
2022/05/22 12:04:38;;;;;;;1.83;0.90;;;;;;;23.26;38.45;97123.41;5004349;28;20120;-64
2022/05/22 12:07:22;;;;;;;3.03;1.10;;;;;;;23.36;38.16;97130.47;5000523;28;20629;-63
2022/05/22 12:10:09;;;;;;;2.67;1.10;;;;;;;23.56;38.48;97125.19;5001372;28;20046;-64
2022/05/22 12:12:52;;;;;;;2.50;0.90;;;;;;;24.00;37.87;97121.88;5002925;28;20069;-64
2022/05/22 12:15:33;;;;;;;2.92;0.90;;;;;;;24.28;37.75;97118.38;4996541;28;20058;-64
2022/05/22 12:18:32;;;;;;;4.53;1.02;;;;;;;24.46;36.83;97112.59;4988660;28;20043;-64
2022/05/22 12:21:18;;;;;;;2.17;0.80;;;;;;;24.85;36.46;97107.41;4994062;28;20042;-64
2022/05/22 12:23:44;;;;;;;2.55;1.00;;;;;;;24.70;36.08;97103.38;4993490;28;20033;-64
2022/05/22 12:26:13;;;;;;;2.00;0.90;;;;;;;24.68;35.60;97097.38;5003906;28;20123;-64
2022/05/22 12:28:56;;;;;;;1.85;0.85;;;;;;;24.60;35.37;97101.09;5001201;28;20034;-64